Chlef Aboubakr Belkaid International Airport

METAR DAOB TAF DAOB
6 °C
°C
-
°C
23m
Alter
18:23:16
LT
17:23
UTC
0 ft

1.000

2.000

3.000

4.000

5.000

SCT 2.000
VFR
<?= Yii::t('app', 'Wind direction') ?> <?= Yii::t('app', 'of'); ?>
060°
07:55
Sonne auf
61%
Luftfeuchtigkeit
Windscherung
Geschlossen/Schnee
RWY-Sichtweite
RWY Zustand
Vert. Sichtweite
Min. Sichtbarkeit
CAVOK
Trend
Korrektur
Besonderer Bericht
1026 hPa
QNH
METAR DAOB 301700Z 06003KT 9999 SCT020 06/M01 Q1026
Vereinzelte Wolken
0 kt
0 kt
18:00
VFR
2 kt
19:00
VFR
2 kt
20:00
VFR
2 kt
21:00
VFR
2 kt
22:00
IFR
2 kt
23:00
IFR
2 kt
00:00
IFR
2 kt
10 km+
Sichtweite
Keine
Wolkendecke
3 kt
Wind
metar-taf.com/DAOI

Metar-Taf.com

Visueller Decoder

Wir und Dritte verfolgen dein Internetverhalten auf unserer Website mit Cookies. Wenn du fortfährst, gehen wir davon aus, dass du mit unserer Cookie-Richtlinie einverstanden bist.